Terminal Aerodrome Forecast
Issued by NWS Rapid City, SD

Home | Current Version | Previous Version | Text Only | Print | Product List | Glossary Off
Versions: 1 2 3 4 5 6 7 8 9 10 11 12 13 14 15

000
FTUS43 KUNR 310500
TAFRAP
TAF
KRAP 310520Z 3106/0106 35011KT P6SM SCT100 SCT250
     FM311400 33006KT P6SM BKN100
     FM311800 35011KT P6SM -TSRA BKN040CB OVC080
     FM010300 33009KT P6SM SCT080 BKN150=

USA.gov is the U.S. government's official web portal to all federal, state and local government web resources and services.